createdAt,value
2019-03-25T00:01:05.861Z,3.70
2019-03-25T00:03:37.958Z,3.67
2019-03-25T00:06:09.976Z,3.40
2019-03-25T00:08:41.798Z,4.50
2019-03-25T00:11:13.723Z,3.27
2019-03-25T00:13:45.759Z,3.63
2019-03-25T00:16:17.819Z,3.50
2019-03-25T00:18:49.666Z,3.30
2019-03-25T00:21:21.844Z,4.45
2019-03-25T00:23:53.634Z,4.00
2019-03-25T00:26:25.486Z,3.77
2019-03-25T00:28:57.268Z,4.12
2019-03-25T00:31:29.057Z,3.35
2019-03-25T00:34:01.164Z,3.45
2019-03-25T00:36:33.062Z,3.35
2019-03-25T00:39:07.641Z,2.80
2019-03-25T00:41:39.581Z,3.20
2019-03-25T00:44:11.417Z,2.77
2019-03-25T00:46:43.409Z,2.98
2019-03-25T00:49:15.455Z,2.60
2019-03-25T00:51:47.389Z,2.77
2019-03-25T00:54:19.184Z,2.62
2019-03-25T00:56:51.112Z,2.67
2019-03-25T00:59:22.899Z,2.33
2019-03-25T01:01:54.920Z,1.87
2019-03-25T01:04:26.843Z,1.87
2019-03-25T01:06:58.803Z,1.73
2019-03-25T01:09:30.745Z,2.30
2019-03-25T01:12:02.769Z,1.60
2019-03-25T01:14:34.559Z,2.30
2019-03-25T01:17:06.320Z,2.03
2019-03-25T01:19:38.115Z,1.70
2019-03-25T01:22:10.178Z,2.00
2019-03-25T01:24:41.942Z,1.60
2019-03-25T01:27:13.755Z,1.60
2019-03-25T01:29:45.548Z,1.67
2019-03-25T01:32:17.705Z,1.50
2019-03-25T01:34:49.654Z,1.17
2019-03-25T01:37:21.474Z,1.66
2019-03-25T01:39:53.582Z,1.40
2019-03-25T01:42:25.732Z,1.40
2019-03-25T01:44:59.017Z,1.17
2019-03-25T01:47:30.868Z,1.07
2019-03-25T01:50:03.043Z,1.17
2019-03-25T01:52:34.882Z,0.87
2019-03-25T01:55:13.528Z,1.63
2019-03-25T01:57:42.256Z,1.50
2019-03-25T02:00:15.176Z,1.23
2019-03-25T02:02:47.628Z,1.15
2019-03-25T02:05:19.396Z,1.00
2019-03-25T02:07:51.432Z,1.60
2019-03-25T02:10:23.525Z,0.73
2019-03-25T02:12:55.447Z,0.98
2019-03-25T02:15:27.546Z,1.17
2019-03-25T02:17:59.479Z,1.27
2019-03-25T02:20:31.661Z,1.20
2019-03-25T02:25:42.883Z,1.40
2019-03-25T02:28:14.935Z,1.45
2019-03-25T02:30:47.743Z,0.98
2019-03-25T02:33:19.913Z,1.10
2019-03-25T02:35:51.788Z,1.37
2019-03-25T02:38:23.571Z,1.17
2019-03-25T02:40:55.526Z,1.53
2019-03-25T02:43:27.384Z,0.80
2019-03-25T02:45:59.276Z,0.83
2019-03-25T02:48:31.128Z,1.27
2019-03-25T02:51:03.162Z,0.83
2019-03-25T02:53:35.060Z,1.37
2019-03-25T02:56:07.102Z,1.10
2019-03-25T02:58:39.194Z,1.10
2019-03-25T03:01:10.966Z,0.77
2019-03-25T03:03:42.728Z,0.80
2019-03-25T03:06:14.592Z,0.75
2019-03-25T03:08:47.744Z,0.97
2019-03-25T03:11:19.659Z,1.20
2019-03-25T03:13:51.565Z,1.00
2019-03-25T03:16:23.419Z,1.23
2019-03-25T03:18:55.494Z,1.07
2019-03-25T03:21:27.307Z,1.13
2019-03-25T03:23:59.168Z,0.77
2019-03-25T03:26:31.029Z,1.20
2019-03-25T03:29:02.836Z,0.77
2019-03-25T03:31:34.713Z,0.70
2019-03-25T03:34:06.557Z,1.20
2019-03-25T03:36:38.635Z,0.97
2019-03-25T03:39:10.657Z,0.65
2019-03-25T03:41:42.913Z,0.67
2019-03-25T03:44:14.756Z,1.22
2019-03-25T03:46:47.991Z,1.20
2019-03-25T03:49:19.841Z,0.93
2019-03-25T03:51:52.640Z,1.53
2019-03-25T03:54:24.627Z,1.20
2019-03-25T03:56:57.761Z,1.47
2019-03-25T03:59:29.541Z,0.78
2019-03-25T04:02:01.631Z,1.20
2019-03-25T04:04:33.484Z,1.67
2019-03-25T04:07:05.377Z,0.63
2019-03-25T04:09:37.199Z,0.80
2019-03-25T04:12:09.588Z,0.90
2019-03-25T04:14:41.433Z,1.03
2019-03-25T04:17:14.261Z,1.27
2019-03-25T04:19:46.432Z,0.77
2019-03-25T04:22:18.353Z,0.80
2019-03-25T04:24:50.240Z,1.60
2019-03-25T04:27:24.048Z,0.80
2019-03-25T04:29:55.791Z,1.05
2019-03-25T04:32:27.633Z,1.83
2019-03-25T04:34:59.527Z,1.10
2019-03-25T04:37:31.326Z,0.80
2019-03-25T04:40:04.513Z,0.60
2019-03-25T04:42:36.291Z,0.77
2019-03-25T04:45:08.340Z,1.17
2019-03-25T04:47:40.221Z,1.20
2019-03-25T04:50:12.608Z,0.60
2019-03-25T04:52:44.536Z,0.60
2019-03-25T04:55:16.706Z,1.17
2019-03-25T04:57:48.667Z,0.83
2019-03-25T05:00:38.061Z,0.90
2019-03-25T05:03:10.815Z,0.83
2019-03-25T05:05:43.129Z,0.50
2019-03-25T05:08:14.968Z,0.90
2019-03-25T05:10:47.943Z,0.60
2019-03-25T05:13:20.304Z,1.37
2019-03-25T05:15:52.198Z,0.85
2019-03-25T05:18:24.130Z,0.60
2019-03-25T05:20:55.955Z,0.97
2019-03-25T05:23:27.743Z,1.23
2019-03-25T05:25:59.503Z,1.07
2019-03-25T05:28:31.270Z,0.70
2019-03-25T05:31:03.088Z,1.27
2019-03-25T05:33:34.921Z,0.80
2019-03-25T05:36:06.774Z,0.60
2019-03-25T05:38:38.560Z,1.70
2019-03-25T05:41:11.107Z,0.88
2019-03-25T05:43:43.145Z,1.25
2019-03-25T05:46:14.917Z,1.20
2019-03-25T05:48:48.004Z,1.07
2019-03-25T05:51:19.840Z,1.27
2019-03-25T05:53:51.837Z,1.20
2019-03-25T05:56:23.644Z,1.07
2019-03-25T05:58:55.711Z,1.00
2019-03-25T06:01:28.622Z,1.60
2019-03-25T06:04:00.585Z,0.80
2019-03-25T06:06:32.544Z,0.93
2019-03-25T06:09:05.003Z,1.23
2019-03-25T06:11:36.895Z,0.83
2019-03-25T06:14:08.802Z,0.87
2019-03-25T06:16:40.562Z,1.50
2019-03-25T06:19:12.324Z,1.07
2019-03-25T06:21:44.446Z,1.10
2019-03-25T06:24:16.310Z,1.55
2019-03-25T06:26:48.096Z,1.97
2019-03-25T06:29:19.963Z,1.32
2019-03-25T06:31:52.068Z,1.60
2019-03-25T06:34:24.219Z,1.47
2019-03-25T06:36:56.070Z,1.23
2019-03-25T06:39:27.981Z,1.20
2019-03-25T06:41:59.739Z,1.40
2019-03-25T06:44:31.639Z,2.10
2019-03-25T06:47:03.605Z,1.60
2019-03-25T06:49:35.380Z,1.23
2019-03-25T06:52:07.518Z,1.90
2019-03-25T06:54:39.540Z,2.20
2019-03-25T06:57:11.299Z,1.37
2019-03-25T06:59:43.214Z,1.22
2019-03-25T07:02:15.324Z,1.67
2019-03-25T07:04:48.601Z,1.62
2019-03-25T07:07:20.544Z,1.50
2019-03-25T07:09:52.535Z,1.55
2019-03-25T07:12:24.657Z,1.17
2019-03-25T07:14:56.503Z,1.70
2019-03-25T07:17:28.440Z,2.47
2019-03-25T07:20:00.331Z,2.12
2019-03-25T07:22:32.239Z,1.60
2019-03-25T07:25:04.109Z,1.72
2019-03-25T07:27:37.327Z,2.00
2019-03-25T07:30:11.409Z,1.33
2019-03-25T07:32:43.525Z,1.70
2019-03-25T07:35:15.576Z,1.47
2019-03-25T07:37:48.491Z,1.30
2019-03-25T07:40:20.393Z,1.70
2019-03-25T07:42:53.945Z,1.42
2019-03-25T07:45:25.867Z,1.35
2019-03-25T07:47:58.759Z,1.83
2019-03-25T07:50:30.674Z,1.60
2019-03-25T07:53:02.509Z,1.23
2019-03-25T07:55:34.920Z,1.70
2019-03-25T07:58:07.130Z,1.27
2019-03-25T08:00:39.165Z,1.50
2019-03-25T08:03:12.069Z,1.32
2019-03-25T08:05:44.152Z,1.20
2019-03-25T08:08:15.932Z,1.80
2019-03-25T08:10:48.489Z,1.42
2019-03-25T08:13:20.405Z,0.80
2019-03-25T08:15:52.686Z,1.30
2019-03-25T08:18:24.652Z,1.33
2019-03-25T08:20:57.604Z,0.90
2019-03-25T08:23:29.539Z,1.47
2019-03-25T08:26:01.401Z,1.17
2019-03-25T08:28:33.321Z,1.20
2019-03-25T08:31:05.499Z,0.80
2019-03-25T08:33:37.738Z,1.27
2019-03-25T08:36:09.835Z,1.20
2019-03-25T08:38:41.643Z,1.13
2019-03-25T08:41:13.640Z,1.23
2019-03-25T08:43:46.648Z,0.77
2019-03-25T08:46:18.436Z,0.95
2019-03-25T08:48:50.476Z,0.93
2019-03-25T08:51:22.705Z,1.03
2019-03-25T08:53:54.798Z,1.10
2019-03-25T08:56:26.697Z,0.73
2019-03-25T08:58:58.587Z,0.90
2019-03-25T09:01:30.573Z,1.33
2019-03-25T09:04:02.391Z,1.30
2019-03-25T09:06:34.249Z,0.98
2019-03-25T09:09:08.543Z,0.60
2019-03-25T09:11:40.861Z,0.97
2019-03-25T09:14:12.959Z,0.97
2019-03-25T09:16:44.916Z,0.80
2019-03-25T09:19:16.953Z,0.90
2019-03-25T09:21:48.861Z,0.77
2019-03-25T09:24:20.768Z,1.00
2019-03-25T09:26:52.806Z,0.80
2019-03-25T09:29:24.731Z,1.27
2019-03-25T09:31:56.659Z,0.50
2019-03-25T09:34:28.449Z,0.70
2019-03-25T09:37:00.413Z,0.70
2019-03-25T09:39:32.380Z,0.50
2019-03-25T09:42:04.329Z,1.00
2019-03-25T09:44:36.175Z,1.15
2019-03-25T09:47:08.027Z,1.37
2019-03-25T09:49:39.880Z,0.80
2019-03-25T09:52:11.933Z,0.97
2019-03-25T09:54:43.805Z,0.90
2019-03-25T09:57:15.950Z,1.37
2019-03-25T09:59:48.830Z,1.27
2019-03-25T10:02:20.908Z,1.60
2019-03-25T10:04:52.875Z,1.55
2019-03-25T10:07:28.292Z,1.37
2019-03-25T10:09:59.343Z,1.23
2019-03-25T10:12:31.218Z,1.00
2019-03-25T10:15:03.151Z,0.83
2019-03-25T10:17:35.108Z,1.17
2019-03-25T10:20:07.696Z,1.10
2019-03-25T10:22:39.850Z,1.50
2019-03-25T10:25:13.383Z,1.32
2019-03-25T10:27:45.369Z,1.30
2019-03-25T10:30:18.068Z,1.13
2019-03-25T10:32:50.205Z,1.40
2019-03-25T10:35:22.308Z,1.43
2019-03-25T10:37:54.350Z,0.90
2019-03-25T10:40:26.240Z,1.30
2019-03-25T10:42:58.204Z,1.20
2019-03-25T10:45:30.116Z,1.97
2019-03-25T10:48:01.905Z,1.37
2019-03-25T10:50:33.781Z,1.37
2019-03-25T10:53:05.680Z,1.10
2019-03-25T10:55:38.724Z,1.67
2019-03-25T10:58:10.734Z,1.67
2019-03-25T11:00:44.164Z,1.53
2019-03-25T11:03:17.057Z,1.67
2019-03-25T11:05:49.119Z,1.60
2019-03-25T11:08:21.217Z,1.27
2019-03-25T11:10:53.489Z,1.40
2019-03-25T11:13:25.301Z,1.30
2019-03-25T11:15:57.534Z,1.60
2019-03-25T11:18:29.830Z,1.60
2019-03-25T11:21:01.707Z,1.40
2019-03-25T11:23:33.574Z,0.98
2019-03-25T11:26:05.576Z,1.50
2019-03-25T11:28:37.924Z,1.67
2019-03-25T11:31:09.842Z,1.20
2019-03-25T11:33:42.270Z,1.13
2019-03-25T11:36:14.933Z,1.57
2019-03-25T11:38:46.875Z,1.43
2019-03-25T11:41:19.232Z,1.10
2019-03-25T11:43:51.419Z,1.10
2019-03-25T11:46:23.778Z,1.42
2019-03-25T11:48:55.807Z,1.83
2019-03-25T11:51:28.205Z,1.57
2019-03-25T11:54:00.248Z,1.90
2019-03-25T11:56:32.110Z,1.20
2019-03-25T11:59:04.044Z,1.50
2019-03-25T12:01:35.878Z,0.80
2019-03-25T12:04:10.581Z,1.53
2019-03-25T12:06:42.688Z,1.90
2019-03-25T12:09:14.979Z,2.33
2019-03-25T12:11:47.182Z,1.30
2019-03-25T12:14:19.414Z,1.15
2019-03-25T12:16:51.314Z,1.33
2019-03-25T12:19:23.196Z,1.98
2019-03-25T12:21:55.043Z,1.83
2019-03-25T12:24:26.925Z,1.20
2019-03-25T12:26:59.261Z,1.10
2019-03-25T12:29:31.288Z,0.95
2019-03-25T12:32:03.215Z,1.10
2019-03-25T12:34:35.196Z,0.80
2019-03-25T12:37:07.052Z,0.93
2019-03-25T12:39:39.189Z,1.10
2019-03-25T12:42:11.128Z,1.00
2019-03-25T12:44:43.085Z,1.10
2019-03-25T12:47:15.500Z,0.78
2019-03-25T12:49:47.491Z,0.90
2019-03-25T12:52:19.435Z,0.83
2019-03-25T12:54:51.320Z,1.10
2019-03-25T12:57:23.569Z,1.57
2019-03-25T12:59:55.673Z,1.20
2019-03-25T13:02:27.438Z,1.20
2019-03-25T13:04:59.396Z,0.77
2019-03-25T13:07:31.382Z,1.00
2019-03-25T13:10:03.366Z,0.85
2019-03-25T13:12:35.316Z,1.30
2019-03-25T13:15:08.670Z,1.30
2019-03-25T13:17:40.472Z,0.80
2019-03-25T13:20:13.523Z,0.80
2019-03-25T13:22:45.418Z,1.00
2019-03-25T13:25:17.264Z,1.00
2019-03-25T13:27:49.296Z,0.60
2019-03-25T13:30:21.491Z,0.67
2019-03-25T13:32:53.297Z,0.55
2019-03-25T13:35:25.242Z,0.53
2019-03-25T13:37:59.005Z,0.50
2019-03-25T13:40:31.257Z,0.70
2019-03-25T13:43:03.192Z,0.43
2019-03-25T13:45:35.231Z,0.50
2019-03-25T13:48:14.082Z,1.15
2019-03-25T13:50:49.155Z,0.50
2019-03-25T13:53:21.185Z,0.40
2019-03-25T13:55:53.171Z,0.97
2019-03-25T13:58:26.123Z,0.70
2019-03-25T14:00:59.107Z,0.47
2019-03-25T14:03:32.023Z,0.70
2019-03-25T14:06:10.733Z,0.57
2019-03-25T14:08:44.930Z,1.03
2019-03-25T14:11:18.858Z,0.60
2019-03-25T14:13:50.738Z,0.60
2019-03-25T14:16:22.940Z,0.98
2019-03-25T14:18:54.944Z,1.00
2019-03-25T14:21:27.201Z,0.70
2019-03-25T14:24:05.372Z,0.68
2019-03-25T14:26:37.219Z,0.60
2019-03-25T14:29:09.185Z,0.40
2019-03-25T14:31:41.083Z,0.40
2019-03-25T14:34:17.899Z,0.60
2019-03-25T14:36:49.828Z,1.00
2019-03-25T14:39:23.022Z,0.20
2019-03-25T14:41:55.372Z,0.50
2019-03-25T14:44:27.551Z,0.40
2019-03-25T14:47:09.284Z,0.37
2019-03-25T14:49:41.126Z,0.30
2019-03-25T14:52:21.283Z,0.47
2019-03-25T14:54:53.158Z,0.57
2019-03-25T14:57:25.084Z,0.50
2019-03-25T14:59:57.270Z,0.30
2019-03-25T15:02:30.160Z,0.70
2019-03-25T15:05:02.069Z,0.30
2019-03-25T15:07:34.665Z,0.30
2019-03-25T15:10:18.388Z,0.30
2019-03-25T15:12:50.234Z,0.63
2019-03-25T15:15:22.192Z,1.02
2019-03-25T15:17:54.190Z,0.50
2019-03-25T15:20:26.143Z,0.47
2019-03-25T15:22:57.934Z,0.70
2019-03-25T15:25:29.817Z,0.50
2019-03-25T15:28:01.791Z,0.50
2019-03-25T15:30:36.266Z,0.65
2019-03-25T15:33:07.427Z,0.70
2019-03-25T15:35:39.511Z,0.50
2019-03-25T15:38:11.588Z,0.53
2019-03-25T15:40:43.514Z,0.73
2019-03-25T15:43:15.466Z,0.40
2019-03-25T15:45:47.426Z,0.33
2019-03-25T15:48:19.956Z,0.50
2019-03-25T15:50:51.749Z,0.30
2019-03-25T15:53:23.527Z,0.50
2019-03-25T15:55:55.322Z,0.40
2019-03-25T15:58:27.344Z,0.30
2019-03-25T16:00:59.550Z,0.53
2019-03-25T16:03:31.338Z,0.20
2019-03-25T16:06:03.148Z,0.57
2019-03-25T16:08:35.055Z,0.30
2019-03-25T16:11:07.031Z,0.40
2019-03-25T16:13:38.808Z,0.40
2019-03-25T16:16:10.748Z,0.57
2019-03-25T16:18:43.544Z,0.20
2019-03-25T16:21:15.648Z,0.30
2019-03-25T16:23:47.575Z,0.63
2019-03-25T16:26:19.693Z,0.10
2019-03-25T16:28:51.949Z,0.20
2019-03-25T16:31:23.856Z,0.10
2019-03-25T16:33:55.661Z,0.60
2019-03-25T16:36:27.618Z,0.27
2019-03-25T16:38:59.438Z,0.28
2019-03-25T16:41:33.139Z,0.40
2019-03-25T16:44:05.373Z,0.40
2019-03-25T16:46:37.238Z,0.40
2019-03-25T16:49:09.229Z,0.40
2019-03-25T16:51:40.992Z,1.00
2019-03-25T16:54:12.845Z,0.43
2019-03-25T19:36:56.444Z,0.20
2019-03-25T19:39:28.342Z,0.40
2019-03-25T19:42:00.206Z,0.20
2019-03-25T19:44:32.062Z,0.30
2019-03-25T19:47:03.925Z,0.10
2019-03-25T19:49:35.794Z,0.28
2019-03-25T19:52:09.454Z,0.20
2019-03-25T19:54:41.113Z,0.20
2019-03-25T19:57:12.948Z,0.17
2019-03-25T19:59:44.721Z,0.20
2019-03-25T20:02:19.175Z,0.10
2019-03-25T20:04:50.326Z,0.27
2019-03-25T20:07:22.109Z,0.20
2019-03-25T20:09:54.037Z,0.20
2019-03-25T20:12:26.224Z,0.13
2019-03-25T20:14:58.322Z,0.55
2019-03-25T20:17:30.168Z,0.20
2019-03-25T20:20:02.032Z,0.20
2019-03-25T20:22:34.231Z,0.10
2019-03-25T20:25:06.764Z,0.30
2019-03-25T20:27:38.680Z,0.10
2019-03-25T20:30:11.137Z,0.20
2019-03-25T20:32:43.144Z,0.30
2019-03-25T20:35:15.708Z,0.27
2019-03-25T20:37:47.567Z,0.30
2019-03-25T20:40:20.569Z,0.40
2019-03-25T20:42:52.418Z,0.53
2019-03-25T20:45:24.271Z,0.50
2019-03-25T20:47:56.090Z,0.47
2019-03-25T20:50:27.881Z,0.77
2019-03-25T20:52:59.972Z,0.37
2019-03-25T20:55:31.751Z,0.30
2019-03-25T20:58:04.868Z,0.70
2019-03-25T21:00:57.187Z,0.30
2019-03-25T21:03:29.256Z,0.00
2019-03-25T21:06:01.090Z,0.40
2019-03-25T21:08:33.981Z,0.50
2019-03-25T21:11:05.765Z,0.40
2019-03-25T21:13:37.518Z,0.28
2019-03-25T21:16:09.461Z,0.43
2019-03-25T21:18:42.268Z,0.67
2019-03-25T21:21:14.052Z,0.30
2019-03-25T21:23:46.085Z,0.70
2019-03-25T21:26:17.935Z,0.60
2019-03-25T21:28:51.132Z,0.55
2019-03-25T21:31:23.194Z,0.40
2019-03-25T21:33:55.936Z,0.90
2019-03-25T21:36:27.831Z,0.80
2019-03-25T21:38:59.586Z,0.70
2019-03-25T21:41:31.431Z,1.10
2019-03-25T21:44:03.246Z,1.07
2019-03-25T21:46:35.312Z,0.57
2019-03-25T21:49:07.113Z,0.70
2019-03-25T21:51:39.216Z,0.85
2019-03-25T21:54:11.146Z,0.97
2019-03-25T21:56:43.356Z,2.10
2019-03-25T21:59:15.274Z,1.60
2019-03-25T22:01:47.289Z,2.10
2019-03-25T22:04:19.067Z,1.20
2019-03-25T22:06:51.190Z,1.40
2019-03-25T22:09:22.956Z,1.57
2019-03-25T22:11:54.736Z,1.37
2019-03-25T22:14:26.520Z,1.10
2019-03-25T22:16:58.285Z,1.30
2019-03-25T22:19:30.058Z,1.25
2019-03-25T22:22:01.961Z,1.10
2019-03-25T22:24:33.827Z,1.80
2019-03-25T22:27:05.605Z,1.75
2019-03-25T22:29:37.444Z,1.10
2019-03-25T22:32:09.231Z,1.67
2019-03-25T22:34:41.264Z,1.53
2019-03-25T22:37:13.085Z,1.07
2019-03-25T22:39:45.241Z,1.30
2019-03-25T22:42:17.013Z,1.33
2019-03-25T22:44:48.962Z,1.70
2019-03-25T22:47:21.461Z,1.15
2019-03-25T22:49:53.332Z,1.17
2019-03-25T22:52:25.372Z,1.00
2019-03-25T22:54:57.513Z,1.52
2019-03-25T22:57:29.902Z,1.83
2019-03-25T23:00:01.693Z,1.90
2019-03-25T23:02:34.799Z,1.60
2019-03-25T23:05:07.497Z,1.62
2019-03-25T23:07:39.558Z,1.40
2019-03-25T23:10:11.911Z,1.40
2019-03-25T23:12:43.900Z,1.00
2019-03-25T23:15:16.093Z,1.40
2019-03-25T23:17:48.272Z,1.03
2019-03-25T23:20:21.063Z,1.52
2019-03-25T23:22:54.611Z,1.73
2019-03-25T23:25:26.342Z,1.53
2019-03-25T23:27:58.258Z,1.27
2019-03-25T23:30:30.022Z,1.47
2019-03-25T23:33:02.265Z,1.37
2019-03-25T23:35:34.102Z,1.12
2019-03-25T23:38:06.039Z,2.15
2019-03-25T23:40:37.909Z,2.00
2019-03-25T23:43:09.991Z,1.60
2019-03-25T23:45:41.913Z,1.80
2019-03-25T23:48:14.764Z,1.67
2019-03-25T23:50:46.643Z,1.37
2019-03-25T23:53:18.409Z,2.17
2019-03-25T23:55:51.062Z,2.33
2019-03-25T23:58:23.618Z,2.27
